Woodworth, Louisiana
Current Conditions -  °F | °C
As of 2:53 AM on Wednesday 22 Oct 2014 (Local Time) from KAEX Reporting Station
Haze Haze  
Wind Chill: 15°   Ceiling: 4600
Heat Index: 15°   Visibility: 6mi
Dew Point: 14°   Wind: 0mph
Humidity: 93%   Direction: NA
Pressure: 30.04"   Gusts: NA
Location:  31.15°N, 92.5°W
Report Text: KAEX 220753Z AUTO 00000KT 6SM BR BKN046 15/14 A3004 RMK AO2 SLP176 T01500139
Loading
Personal Weather Stations






























Interactive Weather Map
Tropical Storm Tracking
New forecast layout! Learn more

10-Day Weather Forecast

Advertisements
Track Severe Weather on mobile